Youngstown, Pennsylvania
Current Conditions -  °F | °C
As of 3:45 PM on Tuesday 27 Jan 2015 (Local Time) from KLBE Reporting Station
Light Snow Light Snow  
Wind Chill: 15°   Ceiling: 2600
Heat Index: 23°   Visibility: 3mi
Dew Point: 18°   Wind: 7mph
Humidity: 80%   Direction: 290°WNW
Pressure: 29.97"   Gusts: NA
Location:  40.28°N, 79.37°W
Report Text: KLBE 272045Z 29006KT 3SM -SN BR SCT013 OVC026 M05/M08 A2997
Loading
Personal Weather Stations






























Interactive Weather Map New forecast layout! Learn more

10-Day Weather Forecast

Advertisements
Track Severe Weather on mobile